Time;durP1;ratioP1;P1;durP2;ratioP2;P2;SDS_P1;SDS_P2;PMS_P1;PMS_P2;Temp;Humidity;BMP_temperature;BMP_pressure;BME280_temperature;BME280_humidity;BME280_pressure;Samples;Min_cycle;Max_cycle;Signal;HPM_P1;HPM_P2
2021/07/23 00:00:15;;;;;;;6.10;5.78;;;26.10;59.80;;;;;;5066625;28;20082;-30
2021/07/23 00:02:41;;;;;;;5.85;5.47;;;26.10;59.90;;;;;;5063085;28;20035;-30
2021/07/23 00:05:07;;;;;;;5.40;5.10;;;26.10;60.00;;;;;;5055981;28;20037;-30
2021/07/23 00:07:33;;;;;;;5.32;5.03;;;26.10;60.10;;;;;;5069604;28;20105;-27
2021/07/23 00:09:59;;;;;;;5.38;5.07;;;26.10;60.10;;;;;;5069292;28;20480;-27
2021/07/23 00:12:24;;;;;;;5.88;5.53;;;26.10;60.10;;;;;;5067067;28;20049;-32
2021/07/23 00:14:50;;;;;;;5.80;5.40;;;26.10;60.00;;;;;;5066362;28;20106;-28
2021/07/23 00:17:15;;;;;;;5.57;5.28;;;26.10;60.00;;;;;;5066266;28;20833;-29
2021/07/23 00:19:41;;;;;;;5.70;5.38;;;26.10;60.20;;;;;;5055937;28;20048;-31
2021/07/23 00:22:06;;;;;;;5.97;5.68;;;26.20;60.20;;;;;;5055382;28;20032;-26
2021/07/23 00:24:32;;;;;;;5.80;5.50;;;26.10;60.10;;;;;;5068051;28;20384;-28
2021/07/23 00:26:57;;;;;;;5.40;5.10;;;26.10;60.20;;;;;;5057738;28;20045;-27
2021/07/23 00:29:23;;;;;;;6.03;5.72;;;26.10;60.20;;;;;;5057875;28;20566;-27
2021/07/23 00:31:48;;;;;;;5.70;5.40;;;26.10;60.30;;;;;;5056400;28;20443;-27
2021/07/23 00:34:14;;;;;;;6.00;5.60;;;26.10;60.20;;;;;;5054247;28;20032;-29
2021/07/23 00:36:40;;;;;;;6.13;5.70;;;26.10;60.30;;;;;;5056992;28;20060;-26
2021/07/23 00:39:05;;;;;;;5.53;5.22;;;26.10;60.90;;;;;;5057775;28;20029;-26
2021/07/23 00:41:31;;;;;;;5.97;5.68;;;26.10;60.50;;;;;;5059577;28;20485;-25
2021/07/23 00:43:56;;;;;;;5.88;5.47;;;26.10;60.40;;;;;;5065994;28;20426;-31
2021/07/23 00:46:24;;;;;;;5.43;5.13;;;26.10;60.40;;;;;;5064659;28;20044;-29
2021/07/23 00:48:50;;;;;;;5.47;5.18;;;26.10;60.50;;;;;;5030630;28;20021;-29
2021/07/23 00:51:15;;;;;;;5.18;4.95;;;26.10;60.50;;;;;;5065552;28;20515;-31
2021/07/23 00:53:41;;;;;;;4.93;4.65;;;26.10;60.60;;;;;;5062499;28;20032;-26
2021/07/23 00:56:06;;;;;;;4.85;4.65;;;26.10;60.60;;;;;;5065943;28;20078;-28
2021/07/23 00:58:33;;;;;;;5.47;5.18;;;26.10;60.50;;;;;;5069380;28;20107;-27
2021/07/23 01:00:59;;;;;;;5.53;5.22;;;26.10;60.50;;;;;;5050707;28;20025;-28
2021/07/23 01:03:25;;;;;;;5.50;5.20;;;26.00;60.60;;;;;;5066492;28;20025;-27
2021/07/23 01:05:52;;;;;;;5.40;5.10;;;26.10;61.50;;;;;;5059504;28;20044;-28
2021/07/23 01:08:18;;;;;;;5.07;4.88;;;26.10;60.80;;;;;;5057278;28;20127;-27
2021/07/23 01:10:43;;;;;;;5.22;4.90;;;26.10;60.80;;;;;;5061576;28;20045;-30
2021/07/23 01:13:10;;;;;;;5.43;5.13;;;26.10;60.80;;;;;;5055748;28;20079;-29
2021/07/23 01:15:36;;;;;;;5.65;5.35;;;26.00;60.70;;;;;;5043211;28;20052;-27
2021/07/23 01:18:02;;;;;;;5.90;5.60;;;26.00;60.80;;;;;;5067953;28;20105;-28
2021/07/23 01:20:27;;;;;;;5.28;4.97;;;26.00;60.80;;;;;;5050679;28;20029;-27
2021/07/23 01:22:54;;;;;;;6.03;5.72;;;26.00;60.70;;;;;;5060940;28;20024;-27
2021/07/23 01:25:19;;;;;;;5.93;5.63;;;26.00;60.90;;;;;;5066423;28;20501;-30
2021/07/23 01:27:50;;;;;;;5.70;5.40;;;26.00;60.70;;;;;;5037238;28;20118;-27
2021/07/23 01:30:16;;;;;;;5.13;4.80;;;26.00;60.70;;;;;;5052236;28;20115;-25
2021/07/23 01:32:41;;;;;;;6.15;5.75;;;26.00;61.00;;;;;;5069262;28;20104;-31
2021/07/23 01:35:07;;;;;;;5.45;5.15;;;26.00;60.80;;;;;;5069224;28;20498;-29
2021/07/23 01:37:33;;;;;;;6.13;5.72;;;26.00;60.90;;;;;;5072731;28;20039;-32
2021/07/23 01:39:59;;;;;;;5.93;5.55;;;26.00;60.90;;;;;;5071915;28;20029;-28
2021/07/23 01:42:28;;;;;;;5.43;5.13;;;25.90;61.10;;;;;;5069856;28;20497;-29
2021/07/23 01:44:54;;;;;;;5.63;5.32;;;26.00;60.90;;;;;;5046993;28;20108;-29
2021/07/23 01:47:20;;;;;;;5.40;5.10;;;26.00;60.90;;;;;;5060791;28;20112;-27
2021/07/23 01:49:45;;;;;;;6.22;5.82;;;26.00;60.90;;;;;;5062221;28;20024;-33
2021/07/23 01:52:11;;;;;;;5.63;5.32;;;25.90;61.00;;;;;;5057823;28;20032;-26
2021/07/23 01:54:36;;;;;;;5.90;5.55;;;25.90;61.10;;;;;;5039263;28;20059;-30
2021/07/23 01:57:05;;;;;;;5.70;5.40;;;25.90;61.10;;;;;;5068843;28;20103;-30
2021/07/23 01:59:31;;;;;;;6.15;5.85;;;26.00;61.10;;;;;;5049493;28;20020;-27
2021/07/23 02:01:57;;;;;;;5.80;5.50;;;25.90;61.90;;;;;;5068900;28;20512;-26
2021/07/23 02:04:23;;;;;;;5.38;5.03;;;25.90;61.10;;;;;;5066025;28;20024;-30
2021/07/23 02:06:49;;;;;;;5.90;5.60;;;25.90;61.10;;;;;;5070613;28;20099;-27
2021/07/23 02:09:14;;;;;;;5.38;5.00;;;25.90;61.20;;;;;;5068799;28;20036;-26
2021/07/23 02:11:40;;;;;;;5.90;5.57;;;25.90;61.10;;;;;;5068303;28;20148;-27
2021/07/23 02:14:07;;;;;;;5.72;5.43;;;25.90;61.10;;;;;;5068273;28;20033;-28
2021/07/23 02:16:36;;;;;;;5.82;5.47;;;25.90;61.20;;;;;;5071867;28;20496;-26
2021/07/23 02:19:02;;;;;;;5.55;5.15;;;25.90;61.10;;;;;;5071289;28;20025;-25
2021/07/23 02:21:28;;;;;;;6.55;6.20;;;25.90;61.30;;;;;;5069286;28;20053;-29
2021/07/23 02:23:53;;;;;;;5.78;5.47;;;25.90;61.20;;;;;;5050392;28;20096;-27
2021/07/23 02:26:19;;;;;;;6.00;5.63;;;25.90;61.20;;;;;;5068260;28;20040;-27
2021/07/23 02:28:46;;;;;;;6.40;6.03;;;25.90;61.10;;;;;;5071442;28;20029;-27
2021/07/23 02:31:11;;;;;;;6.05;5.70;;;25.90;61.20;;;;;;5057015;28;20110;-26
2021/07/23 02:33:37;;;;;;;5.45;5.25;;;25.90;61.10;;;;;;5059301;28;20478;-27
2021/07/23 02:36:03;;;;;;;6.18;5.82;;;25.90;61.10;;;;;;5041982;28;20389;-31
2021/07/23 02:38:28;;;;;;;4.95;4.65;;;25.90;61.20;;;;;;5060400;28;20082;-27
2021/07/23 02:40:56;;;;;;;5.13;4.82;;;25.90;61.30;;;;;;5059013;28;20025;-31
2021/07/23 02:43:22;;;;;;;4.70;4.50;;;25.90;61.40;;;;;;5056385;28;20028;-27
2021/07/23 02:45:47;;;;;;;4.30;4.10;;;25.80;61.40;;;;;;5070064;28;20116;-30
2021/07/23 02:48:13;;;;;;;5.10;4.80;;;25.80;61.60;;;;;;5067888;28;20036;-30
2021/07/23 02:50:38;;;;;;;5.40;5.10;;;25.80;61.70;;;;;;5062722;28;20036;-38
2021/07/23 02:53:04;;;;;;;4.93;4.47;;;25.80;61.50;;;;;;5067920;28;20493;-29
2021/07/23 02:55:30;;;;;;;5.60;5.30;;;25.80;61.50;;;;;;5071680;28;20017;-30
2021/07/23 02:57:55;;;;;;;5.63;5.32;;;25.80;61.50;;;;;;5070089;28;20490;-25
2021/07/23 03:00:22;;;;;;;5.57;5.28;;;25.80;61.50;;;;;;5068421;28;20112;-31
2021/07/23 03:02:48;;;;;;;6.25;5.82;;;25.80;61.30;;;;;;5063178;28;20040;-29
2021/07/23 03:05:14;;;;;;;5.80;5.47;;;25.80;61.30;;;;;;5040444;28;20032;-27
2021/07/23 03:07:39;;;;;;;5.82;5.53;;;25.80;61.50;;;;;;5070630;28;20033;-26
2021/07/23 03:10:05;;;;;;;5.10;4.80;;;25.70;61.70;;;;;;5056954;28;20040;-30
2021/07/23 03:12:31;;;;;;;6.20;5.85;;;25.80;61.40;;;;;;5058350;28;20526;-26
2021/07/23 03:14:56;;;;;;;5.30;5.00;;;25.80;61.30;;;;;;5041318;28;20025;-30
2021/07/23 03:17:22;;;;;;;5.38;5.07;;;25.70;61.40;;;;;;5059371;28;20103;-26
2021/07/23 03:19:47;;;;;;;5.60;5.30;;;25.70;61.40;;;;;;5068696;28;20029;-24
2021/07/23 03:22:13;;;;;;;5.53;5.22;;;25.70;61.40;;;;;;5070472;28;20557;-28
2021/07/23 03:24:38;;;;;;;5.88;5.47;;;25.70;61.40;;;;;;5069342;28;20033;-25
2021/07/23 03:27:04;;;;;;;5.10;4.80;;;25.80;61.30;;;;;;5066828;28;20064;-27
2021/07/23 03:29:30;;;;;;;5.35;4.97;;;25.70;61.50;;;;;;5066723;28;20077;-29
2021/07/23 03:31:55;;;;;;;5.88;5.55;;;25.70;61.70;;;;;;5067330;28;20047;-28
2021/07/23 03:34:21;;;;;;;5.82;5.53;;;25.70;61.70;;;;;;5071409;28;20025;-30
2021/07/23 03:36:46;;;;;;;6.30;5.90;;;25.70;61.50;;;;;;5056301;28;20044;-29
2021/07/23 03:39:12;;;;;;;6.20;5.85;;;25.70;61.50;;;;;;5066012;28;20032;-28
2021/07/23 03:41:37;;;;;;;6.22;5.82;;;25.70;61.50;;;;;;5066842;28;20040;-26
2021/07/23 03:44:03;;;;;;;5.53;5.22;;;25.70;61.60;;;;;;5048688;28;20025;-27
2021/07/23 03:46:29;;;;;;;5.28;4.97;;;25.70;61.60;;;;;;5052932;28;20523;-28
2021/07/23 03:48:56;;;;;;;6.03;5.63;;;25.70;61.70;;;;;;5061975;28;20021;-31
2021/07/23 03:51:22;;;;;;;5.15;4.85;;;25.70;61.50;;;;;;5058678;28;20123;-29
2021/07/23 03:53:47;;;;;;;5.63;5.32;;;25.70;61.30;;;;;;5058420;28;20495;-28
2021/07/23 03:56:13;;;;;;;5.35;5.05;;;25.70;61.30;;;;;;5057442;28;20036;-29
2021/07/23 03:58:39;;;;;;;5.55;5.20;;;25.70;61.30;;;;;;5069328;28;20362;-28
2021/07/23 04:01:08;;;;;;;5.53;5.18;;;25.70;61.50;;;;;;5069358;28;20036;-30
2021/07/23 04:03:33;;;;;;;5.35;4.95;;;25.70;61.50;;;;;;5068673;28;20024;-26
2021/07/23 04:06:00;;;;;;;5.90;5.50;;;25.70;62.50;;;;;;5066215;28;20055;-24
2021/07/23 04:08:25;;;;;;;6.20;5.80;;;25.70;62.00;;;;;;5066359;28;20437;-27
2021/07/23 04:10:51;;;;;;;6.03;5.63;;;25.70;61.70;;;;;;5067018;28;20132;-29
2021/07/23 04:13:16;;;;;;;6.30;5.90;;;25.70;62.20;;;;;;5064995;28;20451;-27
2021/07/23 04:15:42;;;;;;;6.32;5.95;;;25.70;61.50;;;;;;5068450;28;20031;-29
2021/07/23 04:18:08;;;;;;;6.28;5.88;;;25.60;61.60;;;;;;5066372;28;20032;-27
2021/07/23 04:20:33;;;;;;;5.70;5.38;;;25.60;61.90;;;;;;5065956;28;20450;-28
2021/07/23 04:22:59;;;;;;;5.45;5.15;;;25.60;61.80;;;;;;5066097;28;20021;-26
2021/07/23 04:25:24;;;;;;;5.18;4.80;;;25.60;61.80;;;;;;5069186;28;20059;-29
2021/07/23 04:27:50;;;;;;;5.75;5.35;;;25.70;61.50;;;;;;5068443;28;20028;-28
2021/07/23 04:30:16;;;;;;;5.88;5.47;;;25.70;61.70;;;;;;5066111;28;20067;-30
2021/07/23 04:32:43;;;;;;;5.60;5.28;;;25.70;61.60;;;;;;5066050;28;20059;-27
2021/07/23 04:35:10;;;;;;;6.32;5.93;;;25.70;61.60;;;;;;5049883;28;20024;-29
2021/07/23 04:37:35;;;;;;;6.47;6.03;;;25.70;61.60;;;;;;5053072;28;20025;-33
2021/07/23 04:40:06;;;;;;;6.47;6.07;;;25.70;61.60;;;;;;5068789;28;20070;-25
2021/07/23 04:42:34;;;;;;;5.72;5.40;;;25.70;61.70;;;;;;5067272;28;20032;-29
2021/07/23 04:45:00;;;;;;;6.30;5.90;;;25.60;61.50;;;;;;5065852;28;20093;-33
2021/07/23 04:47:26;;;;;;;6.68;6.18;;;25.60;61.30;;;;;;5065916;28;20485;-28
2021/07/23 04:49:51;;;;;;;6.03;5.72;;;25.70;61.70;;;;;;5066795;28;20017;-26
2021/07/23 04:52:17;;;;;;;5.50;5.20;;;25.70;61.70;;;;;;5069785;28;20500;-26
2021/07/23 04:54:42;;;;;;;5.97;5.63;;;25.70;61.50;;;;;;5067856;28;20056;-25
2021/07/23 04:57:14;;;;;;;5.75;5.45;;;25.60;61.50;;;;;;5041893;28;20159;-27
2021/07/23 04:59:40;;;;;;;6.40;5.93;;;25.60;61.40;;;;;;5057451;28;20040;-28
2021/07/23 05:02:05;;;;;;;7.05;6.55;;;25.60;61.40;;;;;;5039674;28;20028;-26
2021/07/23 05:04:35;;;;;;;6.50;6.10;;;25.60;61.50;;;;;;5053952;28;20025;-26
2021/07/23 05:07:01;;;;;;;6.63;6.22;;;25.60;61.40;;;;;;5037224;28;20091;-28
2021/07/23 05:09:26;;;;;;;6.38;5.97;;;25.60;61.60;;;;;;5066590;28;20025;-26
2021/07/23 05:11:52;;;;;;;5.93;5.50;;;25.60;61.50;;;;;;5065497;28;20036;-26
2021/07/23 05:14:17;;;;;;;6.57;6.07;;;25.70;61.40;;;;;;5047198;28;20021;-25
2021/07/23 05:16:43;;;;;;;6.55;6.15;;;25.60;62.20;;;;;;5037827;28;20516;-28
2021/07/23 05:19:10;;;;;;;6.65;6.15;;;25.60;61.40;;;;;;5053504;28;20394;-24
2021/07/23 05:21:35;;;;;;;5.97;5.57;;;25.70;61.60;;;;;;5052449;28;20024;-27
2021/07/23 05:24:03;;;;;;;6.53;6.10;;;25.70;61.30;;;;;;5065361;28;20025;-27
2021/07/23 05:26:31;;;;;;;5.88;5.57;;;25.70;61.50;;;;;;5064971;28;20033;-29
2021/07/23 05:28:57;;;;;;;6.45;6.05;;;25.70;61.30;;;;;;5065533;28;20023;-26
2021/07/23 05:31:23;;;;;;;6.78;6.38;;;25.70;61.30;;;;;;5052604;28;20081;-27
2021/07/23 05:33:48;;;;;;;6.93;6.43;;;25.60;61.30;;;;;;5056367;28;20033;-26
2021/07/23 05:36:14;;;;;;;6.70;6.30;;;25.60;61.30;;;;;;5057034;28;20021;-27
2021/07/23 05:38:40;;;;;;;6.90;6.50;;;25.60;61.10;;;;;;5056984;28;20151;-24
2021/07/23 05:41:08;;;;;;;6.53;6.13;;;25.60;61.00;;;;;;5056865;28;20413;-25
2021/07/23 05:43:34;;;;;;;6.15;5.65;;;25.60;61.90;;;;;;5036068;28;20025;-30
2021/07/23 05:46:03;;;;;;;6.07;5.57;;;25.60;61.30;;;;;;4708891;28;10000504;-29
2021/07/23 05:48:29;;;;;;;5.80;5.30;;;25.60;63.20;;;;;;5065305;28;20055;-24
2021/07/23 05:50:54;;;;;;;7.05;6.38;;;25.30;60.90;;;;;;5064643;28;20037;-27
2021/07/23 05:53:20;;;;;;;14.38;7.03;;;25.10;60.20;;;;;;5064463;28;20025;-28
2021/07/23 05:55:45;;;;;;;7.78;7.18;;;24.90;60.00;;;;;;5054979;28;20033;-28
2021/07/23 05:58:11;;;;;;;7.25;6.75;;;24.70;59.70;;;;;;5053626;28;20516;-28
2021/07/23 06:00:36;;;;;;;6.95;6.45;;;24.60;60.00;;;;;;5058881;28;20450;-28
2021/07/23 06:03:05;;;;;;;7.13;6.63;;;24.60;60.40;;;;;;5059848;28;20154;-29
2021/07/23 06:05:31;;;;;;;8.13;7.43;;;24.50;60.70;;;;;;5059934;28;20525;-28
2021/07/23 06:07:56;;;;;;;8.68;7.88;;;24.50;60.90;;;;;;5059648;28;20031;-26
2021/07/23 06:10:22;;;;;;;7.85;7.15;;;24.40;61.20;;;;;;5053788;28;20030;-29
2021/07/23 06:12:47;;;;;;;8.35;7.65;;;24.40;60.70;;;;;;5063907;28;20028;-34
2021/07/23 06:15:13;;;;;;;7.40;6.88;;;24.40;60.80;;;;;;5056257;28;20121;-33
2021/07/23 06:17:40;;;;;;;7.55;6.85;;;24.40;61.20;;;;;;5056475;28;20044;-26
2021/07/23 06:20:06;;;;;;;7.70;7.00;;;24.40;61.00;;;;;;5062146;28;20025;-29
2021/07/23 06:22:31;;;;;;;7.43;6.82;;;24.40;60.80;;;;;;5058969;28;20085;-29
2021/07/23 06:24:58;;;;;;;7.60;7.10;;;24.30;61.00;;;;;;5066971;28;20033;-27
2021/07/23 06:27:24;;;;;;;7.85;7.22;;;24.30;61.10;;;;;;5063263;28;20082;-30
2021/07/23 06:29:53;;;;;;;7.22;6.60;;;24.20;61.20;;;;;;5065694;28;20052;-29
2021/07/23 06:32:20;;;;;;;8.27;7.45;;;24.20;61.60;;;;;;5064486;28;20035;-33
2021/07/23 06:34:46;;;;;;;8.18;7.38;;;24.20;61.90;;;;;;5067249;28;20029;-25
2021/07/23 06:37:11;;;;;;;6.88;6.28;;;24.20;61.90;;;;;;5069984;28;20485;-28
2021/07/23 06:39:37;;;;;;;7.32;6.63;;;24.30;61.70;;;;;;5070516;28;20116;-29
2021/07/23 06:42:03;;;;;;;7.93;7.32;;;24.30;61.30;;;;;;5064815;28;20451;-30
2021/07/23 06:44:30;;;;;;;7.13;6.63;;;24.20;61.30;;;;;;5045733;28;20025;-30
2021/07/23 06:46:55;;;;;;;7.82;7.28;;;24.20;61.50;;;;;;5060337;28;20029;-32
2021/07/23 06:49:21;;;;;;;7.32;6.82;;;24.20;62.30;;;;;;5064795;28;20117;-32
2021/07/23 06:51:46;;;;;;;7.18;6.60;;;24.20;61.70;;;;;;5069754;28;20037;-29
2021/07/23 06:54:13;;;;;;;9.07;7.28;;;24.20;61.60;;;;;;5059843;28;20092;-28
2021/07/23 06:56:39;;;;;;;7.38;6.78;;;24.20;61.80;;;;;;5065265;28;20040;-27
2021/07/23 06:59:05;;;;;;;6.97;6.32;;;24.30;62.50;;;;;;5058014;28;20424;-31
2021/07/23 07:01:30;;;;;;;7.65;7.00;;;24.20;62.00;;;;;;5054475;28;20051;-29
2021/07/23 07:03:56;;;;;;;6.90;6.30;;;24.30;62.10;;;;;;5051200;28;20078;-28
2021/07/23 07:06:21;;;;;;;7.55;6.85;;;24.30;62.80;;;;;;5065386;28;20037;-25
2021/07/23 07:08:47;;;;;;;6.32;5.82;;;24.30;62.10;;;;;;5062218;28;20416;-27
2021/07/23 07:11:13;;;;;;;10.82;6.80;;;24.30;62.10;;;;;;5066921;28;20122;-35
2021/07/23 07:13:38;;;;;;;6.97;6.38;;;24.30;62.30;;;;;;5066365;28;20040;-29
2021/07/23 07:16:04;;;;;;;7.00;6.43;;;24.40;62.30;;;;;;5065868;28;20029;-31
2021/07/23 07:18:30;;;;;;;7.40;6.85;;;24.40;62.40;;;;;;5066981;28;20036;-32
2021/07/23 07:20:55;;;;;;;7.38;6.85;;;24.40;62.30;;;;;;5063657;28;20043;-26
2021/07/23 07:23:21;;;;;;;7.40;6.75;;;24.40;62.50;;;;;;5065308;28;20401;-29
2021/07/23 07:25:46;;;;;;;7.10;6.70;;;24.40;62.70;;;;;;5065499;28;20040;-29
2021/07/23 07:28:12;;;;;;;7.47;6.97;;;24.40;62.60;;;;;;5070083;28;20678;-30
2021/07/23 07:30:38;;;;;;;7.28;6.68;;;24.40;62.80;;;;;;5068260;28;20711;-29
2021/07/23 07:33:03;;;;;;;7.15;6.65;;;24.40;62.60;;;;;;5064992;28;20450;-31
2021/07/23 07:35:29;;;;;;;7.65;7.05;;;24.50;62.70;;;;;;5064762;28;20036;-30
2021/07/23 07:37:55;;;;;;;6.90;6.40;;;24.40;62.20;;;;;;5064338;28;20603;-29
2021/07/23 07:40:20;;;;;;;6.70;6.25;;;24.50;62.30;;;;;;5066606;28;20502;-28
2021/07/23 07:42:46;;;;;;;7.53;6.82;;;24.60;61.90;;;;;;5068062;28;20032;-28
2021/07/23 07:45:11;;;;;;;7.28;6.78;;;24.50;61.90;;;;;;5065712;28;20027;-33
2021/07/23 07:47:37;;;;;;;6.13;5.70;;;24.60;61.90;;;;;;4715513;28;10000182;-33
2021/07/23 07:50:04;;;;;;;7.53;6.90;;;24.50;62.10;;;;;;5062855;28;20093;-30
2021/07/23 07:52:30;;;;;;;7.13;6.53;;;24.60;62.20;;;;;;5043725;28;20028;-31
2021/07/23 07:54:55;;;;;;;7.28;6.72;;;24.80;61.70;;;;;;5063741;28;20523;-39
2021/07/23 07:57:22;;;;;;;7.20;6.63;;;24.70;61.90;;;;;;5061675;28;20028;-25
2021/07/23 07:59:48;;;;;;;6.45;5.85;;;24.70;62.10;;;;;;5060723;28;20039;-29
2021/07/23 08:02:14;;;;;;;6.82;6.32;;;24.80;62.10;;;;;;5059205;28;20032;-29
2021/07/23 08:04:40;;;;;;;7.20;6.57;;;24.80;62.10;;;;;;5062246;28;20040;-32
2021/07/23 08:07:07;;;;;;;7.20;6.68;;;24.80;62.20;;;;;;5062393;28;20044;-35
2021/07/23 08:09:50;;;;;;;6.95;6.35;;;24.90;62.20;;;;;;5065612;28;20408;-29
2021/07/23 08:12:16;;;;;;;6.80;6.30;;;25.00;61.70;;;;;;5063338;28;20048;-38
2021/07/23 08:14:42;;;;;;;7.93;7.30;;;25.10;61.40;;;;;;5060509;28;20085;-29
2021/07/23 08:17:07;;;;;;;7.13;6.50;;;25.40;60.90;;;;;;5063647;28;20059;-33
2021/07/23 08:19:34;;;;;;;7.28;6.68;;;25.30;61.30;;;;;;5044446;28;20028;-30
2021/07/23 08:21:59;;;;;;;7.63;6.90;;;25.20;61.50;;;;;;5062313;28;20097;-37
2021/07/23 08:24:25;;;;;;;6.53;6.10;;;25.20;61.80;;;;;;5060440;28;20028;-35
2021/07/23 08:26:50;;;;;;;6.22;5.78;;;25.20;61.80;;;;;;5043991;28;20036;-33
2021/07/23 08:29:16;;;;;;;6.97;6.38;;;25.20;61.80;;;;;;5044397;28;20035;-28
2021/07/23 08:31:41;;;;;;;6.78;6.20;;;25.20;61.90;;;;;;5060776;28;20403;-36
2021/07/23 08:34:07;;;;;;;8.43;6.65;;;25.30;61.90;;;;;;5061806;28;20037;-29
2021/07/23 08:36:33;;;;;;;6.78;6.28;;;25.30;61.70;;;;;;5064485;28;20039;-34
2021/07/23 08:38:59;;;;;;;6.95;6.43;;;25.30;62.10;;;;;;5062816;28;20036;-31
2021/07/23 08:41:25;;;;;;;8.32;7.20;;;25.20;62.20;;;;;;5062895;28;20700;-36
2021/07/23 08:43:50;;;;;;;6.45;5.95;;;25.20;62.50;;;;;;5061779;28;20036;-33
2021/07/23 08:46:16;;;;;;;7.05;6.53;;;25.20;62.40;;;;;;5063145;28;20031;-30
2021/07/23 08:48:41;;;;;;;7.38;6.88;;;25.30;62.30;;;;;;5043356;28;20028;-30
2021/07/23 08:51:08;;;;;;;7.55;6.97;;;25.30;62.00;;;;;;5062309;28;20036;-27
2021/07/23 08:53:34;;;;;;;7.07;6.43;;;25.30;61.90;;;;;;5063194;28;20066;-32
2021/07/23 08:55:59;;;;;;;7.70;7.00;;;25.30;61.90;;;;;;5062192;28;20123;-27
2021/07/23 08:58:25;;;;;;;6.93;6.53;;;25.30;61.80;;;;;;5061181;28;20028;-28
2021/07/23 09:00:56;;;;;;;7.10;6.70;;;25.40;61.70;;;;;;5064548;28;20767;-30
2021/07/23 09:03:24;;;;;;;7.25;6.75;;;25.40;61.70;;;;;;5059553;28;20567;-32
2021/07/23 09:05:49;;;;;;;6.53;6.10;;;25.40;61.80;;;;;;5024770;28;20071;-35
2021/07/23 09:08:19;;;;;;;7.22;6.63;;;25.40;61.80;;;;;;5062900;28;20112;-28
2021/07/23 09:10:45;;;;;;;7.00;6.40;;;25.40;61.70;;;;;;5062340;28;20048;-33
2021/07/23 09:13:11;;;;;;;7.82;7.32;;;25.40;61.60;;;;;;5059847;28;20032;-38
2021/07/23 09:15:43;;;;;;;9.13;6.75;;;25.40;61.60;;;;;;5061896;28;20034;-31
2021/07/23 09:18:23;;;;;;;6.97;6.38;;;25.40;61.50;;;;;;5057205;28;20886;-31
2021/07/23 09:20:54;;;;;;;7.70;6.90;;;25.40;61.50;;;;;;5062625;28;20029;-34
2021/07/23 09:23:33;;;;;;;7.28;6.55;;;25.50;61.40;;;;;;5054448;28;20046;-39
2021/07/23 09:26:02;;;;;;;7.75;7.25;;;25.40;61.50;;;;;;5053340;28;20052;-35
2021/07/23 09:28:31;;;;;;;7.50;6.90;;;25.40;61.50;;;;;;5059797;28;20165;-28
2021/07/23 09:31:01;;;;;;;7.07;6.57;;;25.60;61.40;;;;;;5060673;28;20046;-29
2021/07/23 09:33:33;;;;;;;7.82;7.22;;;25.60;61.10;;;;;;5060787;28;20040;-34
2021/07/23 09:36:04;;;;;;;6.82;6.35;;;25.60;61.40;;;;;;5067144;28;20032;-25
2021/07/23 09:38:39;;;;;;;7.47;6.88;;;25.60;61.50;;;;;;5065531;28;20048;-29
2021/07/23 09:41:10;;;;;;;6.20;5.78;;;25.60;61.40;;;;;;5065478;28;20044;-27
2021/07/23 09:43:43;;;;;;;6.97;6.38;;;25.60;61.40;;;;;;5063632;28;20508;-29
2021/07/23 09:46:34;;;;;;;6.50;6.00;;;25.70;61.30;;;;;;5066595;28;20067;-27
2021/07/23 09:49:24;;;;;;;7.32;6.72;;;25.70;61.50;;;;;;5049440;28;20032;-31
2021/07/23 09:51:50;;;;;;;7.10;6.50;;;25.60;61.70;;;;;;5052342;28;20051;-30
2021/07/23 09:54:16;;;;;;;6.80;6.30;;;25.70;61.40;;;;;;5065568;28;20051;-27
2021/07/23 09:56:42;;;;;;;6.32;5.95;;;25.70;61.30;;;;;;5065661;28;20028;-31
2021/07/23 09:59:10;;;;;;;7.05;6.50;;;25.70;61.20;;;;;;5065470;28;20109;-30
2021/07/23 10:01:38;;;;;;;7.75;7.00;;;25.70;61.10;;;;;;5047918;28;20509;-31
2021/07/23 10:04:29;;;;;;;7.80;7.20;;;25.70;61.30;;;;;;5065303;28;20082;-32
2021/07/23 10:07:24;;;;;;;7.55;6.63;;;25.70;61.00;;;;;;5047842;28;20043;-29
2021/07/23 10:09:51;;;;;;;7.40;6.90;;;25.70;61.10;;;;;;5061269;28;20051;-39
2021/07/23 10:12:16;;;;;;;7.85;7.25;;;25.70;61.20;;;;;;5046660;28;20858;-33
2021/07/23 10:14:46;;;;;;;9.68;7.15;;;25.70;61.20;;;;;;5030976;28;20033;-31
2021/07/23 10:17:12;;;;;;;8.38;7.55;;;25.70;61.00;;;;;;5066262;28;20036;-28
2021/07/23 10:19:38;;;;;;;7.50;7.00;;;25.80;61.20;;;;;;5065561;28;20035;-29
2021/07/23 10:22:03;;;;;;;7.88;7.07;;;25.70;61.30;;;;;;5044713;28;20032;-28
2021/07/23 10:24:33;;;;;;;8.38;7.60;;;25.70;61.50;;;;;;5063941;28;20101;-27
2021/07/23 10:27:03;;;;;;;7.82;7.15;;;25.70;61.70;;;;;;5029618;28;20432;-27
2021/07/23 10:29:47;;;;;;;10.65;7.45;;;25.70;62.30;;;;;;5064632;28;20845;-27
2021/07/23 10:32:27;;;;;;;8.75;7.40;;;25.70;62.50;;;;;;5060665;28;20106;-27
2021/07/23 10:35:16;;;;;;;7.32;6.72;;;25.70;62.60;;;;;;5069492;28;20503;-26
2021/07/23 10:37:48;;;;;;;7.07;6.53;;;25.80;63.50;;;;;;5052288;28;20105;-27
2021/07/23 10:40:14;;;;;;;7.75;7.07;;;25.80;62.80;;;;;;5069284;28;20562;-29
2021/07/23 10:42:44;;;;;;;6.68;6.28;;;25.90;63.40;;;;;;5065333;28;20561;-28
2021/07/23 10:45:19;;;;;;;8.30;7.53;;;25.90;63.20;;;;;;5066908;28;20036;-28
2021/07/23 10:47:46;;;;;;;9.27;8.23;;;25.90;63.60;;;;;;5045156;28;20051;-27
2021/07/23 10:50:21;;;;;;;7.78;7.28;;;25.90;63.90;;;;;;5062719;28;20033;-30
2021/07/23 10:52:47;;;;;;;7.78;7.18;;;25.90;64.70;;;;;;5063190;28;20047;-28
2021/07/23 10:55:19;;;;;;;8.70;7.00;;;25.90;63.80;;;;;;5046165;28;20063;-25
2021/07/23 10:58:07;;;;;;;7.68;6.85;;;25.90;63.50;;;;;;5064036;28;20035;-26
2021/07/23 11:00:55;;;;;;;11.80;7.20;;;25.90;63.30;;;;;;5045918;28;20067;-29
2021/07/23 11:03:43;;;;;;;8.00;7.13;;;25.90;62.40;;;;;;5064115;28;20037;-29
2021/07/23 11:06:27;;;;;;;8.02;7.38;;;25.90;62.10;;;;;;5063293;28;20036;-38
2021/07/23 11:09:02;;;;;;;7.32;6.47;;;26.00;61.20;;;;;;5066141;28;20122;-37
2021/07/23 11:11:28;;;;;;;6.93;6.43;;;26.00;61.10;;;;;;5063368;28;20052;-25
2021/07/23 11:13:54;;;;;;;8.25;6.47;;;25.90;60.70;;;;;;5062409;28;20047;-33
2021/07/23 11:16:22;;;;;;;7.75;7.07;;;25.90;60.40;;;;;;5066918;28;20028;-30
2021/07/23 11:19:06;;;;;;;7.65;7.05;;;25.90;60.00;;;;;;5067877;28;20031;-30
2021/07/23 11:21:35;;;;;;;6.55;6.07;;;25.90;59.80;;;;;;5063857;28;20044;-27
2021/07/23 11:24:08;;;;;;;7.53;6.78;;;25.90;59.80;;;;;;5063486;28;20584;-36
2021/07/23 11:26:33;;;;;;;7.68;6.97;;;26.00;59.70;;;;;;5063978;28;20700;-28
2021/07/23 11:28:59;;;;;;;8.07;7.45;;;25.90;59.70;;;;;;5065492;28;20508;-33
2021/07/23 11:31:30;;;;;;;7.95;7.25;;;26.00;59.60;;;;;;5064136;28;20036;-28
2021/07/23 11:33:57;;;;;;;7.00;6.55;;;26.00;59.50;;;;;;5061190;28;20074;-37
2021/07/23 11:36:38;;;;;;;9.18;7.20;;;25.90;59.80;;;;;;5045429;28;20046;-29
2021/07/23 11:39:07;;;;;;;6.78;6.25;;;25.90;60.00;;;;;;5043624;28;20036;-33
2021/07/23 11:41:34;;;;;;;7.78;7.07;;;25.90;60.20;;;;;;5062462;28;20420;-26
2021/07/23 11:44:07;;;;;;;6.82;6.43;;;25.90;60.20;;;;;;5060756;28;20036;-26
2021/07/23 11:46:32;;;;;;;6.68;6.03;;;26.00;60.40;;;;;;5062772;28;20048;-25
2021/07/23 11:49:01;;;;;;;7.07;6.47;;;26.00;60.50;;;;;;5063583;28;20033;-27
2021/07/23 11:51:40;;;;;;;7.57;6.78;;;26.00;60.50;;;;;;5062717;28;20123;-29
2021/07/23 11:54:06;;;;;;;6.65;6.15;;;26.00;60.60;;;;;;5024608;28;20047;-30
2021/07/23 11:56:33;;;;;;;6.68;6.18;;;26.10;60.80;;;;;;5026270;28;20032;-27
2021/07/23 11:58:59;;;;;;;6.57;6.07;;;26.10;60.90;;;;;;5062398;28;20032;-26
2021/07/23 12:01:28;;;;;;;6.78;6.28;;;26.10;60.90;;;;;;5060001;28;20032;-26
2021/07/23 12:03:55;;;;;;;6.20;5.70;;;26.10;61.10;;;;;;5061711;28;21476;-30
2021/07/23 12:06:26;;;;;;;6.88;6.38;;;26.00;61.00;;;;;;5063040;28;20040;-29
2021/07/23 12:08:53;;;;;;;6.07;5.60;;;26.10;61.50;;;;;;5055595;28;20390;-33
2021/07/23 12:11:23;;;;;;;6.18;5.78;;;26.10;61.00;;;;;;5042116;28;20785;-39
2021/07/23 12:13:50;;;;;;;6.78;6.38;;;26.10;61.40;;;;;;5039829;28;20032;-28
2021/07/23 12:16:19;;;;;;;6.10;5.75;;;26.20;61.80;;;;;;5062780;28;20032;-33
2021/07/23 12:18:59;;;;;;;7.10;6.60;;;26.20;61.80;;;;;;5062211;28;20036;-30
2021/07/23 12:21:26;;;;;;;7.88;7.25;;;26.20;61.40;;;;;;5061710;28;20052;-28
2021/07/23 12:24:06;;;;;;;7.47;6.40;;;26.20;61.30;;;;;;5060487;28;20408;-35
2021/07/23 12:26:34;;;;;;;6.22;5.72;;;26.20;62.00;;;;;;4709931;28;10000105;-26
2021/07/23 12:29:00;;;;;;;6.95;6.35;;;26.20;61.40;;;;;;5044014;28;20032;-36
2021/07/23 12:31:26;;;;;;;7.10;6.50;;;26.20;61.70;;;;;;5061104;28;20043;-27
2021/07/23 12:34:08;;;;;;;7.30;6.70;;;26.20;62.10;;;;;;5041115;28;20039;-29
2021/07/23 12:36:48;;;;;;;6.28;5.88;;;26.30;61.70;;;;;;5046908;28;20122;-37
2021/07/23 12:39:14;;;;;;;6.03;5.63;;;26.30;62.10;;;;;;5063789;28;20041;-32
2021/07/23 12:41:40;;;;;;;6.45;5.82;;;26.30;62.30;;;;;;5061156;28;20285;-29
2021/07/23 12:44:07;;;;;;;6.47;6.07;;;26.30;62.20;;;;;;5062348;28;20102;-35
2021/07/23 12:46:33;;;;;;;6.72;6.20;;;26.30;61.90;;;;;;5062562;28;20050;-27